Time;durP1;ratioP1;P1;durP2;ratioP2;P2;SDS_P1;SDS_P2;PMS_P1;PMS_P2;Temp;Humidity;BMP_temperature;BMP_pressure;BME280_temperature;BME280_humidity;BME280_pressure;Samples;Min_cycle;Max_cycle;Signal;HPM_P1;HPM_P2
2024/02/21 00:01:16;;;;;;;53.17;49.23;;;;;;;;;;4164309;28;20077;-56
2024/02/21 00:03:19;;;;;;;48.70;45.53;;;;;;;;;;4163331;28;20095;-54
2024/02/21 00:05:21;;;;;;;43.42;40.78;;;;;;;;;;4162801;28;20576;-55
2024/02/21 00:07:22;;;;;;;49.80;45.73;;;;;;;;;;4163187;28;20121;-55
2024/02/21 00:09:24;;;;;;;52.40;47.38;;;;;;;;;;4163598;28;20338;-56
2024/02/21 00:11:26;;;;;;;52.63;48.40;;;;;;;;;;4161416;28;20148;-55
2024/02/21 00:13:28;;;;;;;51.87;47.60;;;;;;;;;;4158965;28;20049;-56
2024/02/21 00:15:29;;;;;;;53.73;49.67;;;;;;;;;;4163962;28;20064;-55
2024/02/21 00:17:31;;;;;;;45.33;42.15;;;;;;;;;;4163847;28;20413;-55
2024/02/21 00:19:32;;;;;;;44.63;41.73;;;;;;;;;;4171977;28;20533;-56
2024/02/21 00:21:34;;;;;;;47.80;44.47;;;;;;;;;;4180549;28;20045;-55
2024/02/21 00:23:36;;;;;;;46.58;43.28;;;;;;;;;;4164646;28;20330;-56
2024/02/21 00:25:37;;;;;;;46.73;43.67;;;;;;;;;;4146670;28;20046;-55
2024/02/21 00:27:40;;;;;;;46.17;42.92;;;;;;;;;;4164120;28;20041;-55
2024/02/21 00:29:42;;;;;;;49.10;45.97;;;;;;;;;;4163990;28;20041;-55
2024/02/21 00:31:44;;;;;;;46.58;43.78;;;;;;;;;;4164244;28;20046;-55
2024/02/21 00:33:46;;;;;;;;;;;;;;;;;;4164524;28;20140;-56
2024/02/21 00:35:47;;;;;;;43.08;40.60;;;;;;;;;;4145772;28;19922;-55
2024/02/21 00:37:49;;;;;;;45.95;43.17;;;;;;;;;;4146380;28;20046;-55
2024/02/21 00:39:51;;;;;;;47.00;43.80;;;;;;;;;;4146662;28;20076;-54
2024/02/21 00:41:53;;;;;;;45.38;42.40;;;;;;;;;;4164057;28;20064;-55
2024/02/21 00:43:54;;;;;;;47.50;44.35;;;;;;;;;;4163866;28;20041;-56
2024/02/21 00:45:56;;;;;;;47.67;44.47;;;;;;;;;;4163737;28;20042;-55
2024/02/21 00:47:58;;;;;;;45.75;43.03;;;;;;;;;;4163943;28;20037;-55
2024/02/21 00:50:00;;;;;;;43.65;40.92;;;;;;;;;;4163881;28;20505;-54
2024/02/21 00:52:01;;;;;;;38.83;36.97;;;;;;;;;;4165777;28;20048;-54
2024/02/21 00:54:03;;;;;;;38.92;37.17;;;;;;;;;;4167316;28;20050;-55
2024/02/21 00:56:05;;;;;;;42.00;40.17;;;;;;;;;;4149921;28;20104;-55
2024/02/21 00:58:07;;;;;;;36.08;34.58;;;;;;;;;;4167115;28;20038;-55
2024/02/21 01:00:09;;;;;;;40.53;38.70;;;;;;;;;;4167171;28;20057;-54
2024/02/21 01:02:10;;;;;;;38.72;37.03;;;;;;;;;;4167091;28;20121;-54
2024/02/21 01:04:12;;;;;;;36.60;34.60;;;;;;;;;;4166850;28;20053;-55
2024/02/21 01:06:14;;;;;;;38.30;36.28;;;;;;;;;;4167068;28;20076;-55
2024/02/21 01:08:16;;;;;;;48.20;44.93;;;;;;;;;;4167035;28;20037;-55
2024/02/21 01:10:17;;;;;;;47.97;44.75;;;;;;;;;;4167041;28;20045;-54
2024/02/21 01:12:19;;;;;;;50.20;46.63;;;;;;;;;;4166904;28;20487;-55
2024/02/21 01:14:21;;;;;;;46.93;43.87;;;;;;;;;;4149258;28;20301;-55
2024/02/21 01:16:22;;;;;;;45.38;42.60;;;;;;;;;;4166812;28;20284;-55
2024/02/21 01:18:24;;;;;;;45.93;42.97;;;;;;;;;;4166676;28;20049;-55
2024/02/21 01:20:26;;;;;;;44.78;42.17;;;;;;;;;;4166727;28;20446;-55
2024/02/21 01:22:28;;;;;;;45.65;42.70;;;;;;;;;;4166714;28;20033;-54
2024/02/21 01:24:30;;;;;;;;;;;;;;;;;;4167378;28;20048;-56
2024/02/21 01:26:31;;;;;;;46.05;43.28;;;;;;;;;;4167123;28;19927;-55
2024/02/21 01:28:33;;;;;;;44.33;41.37;;;;;;;;;;4166754;28;20438;-55
2024/02/21 01:30:35;;;;;;;48.70;45.40;;;;;;;;;;4166733;28;20052;-55
2024/02/21 01:32:37;;;;;;;44.10;41.40;;;;;;;;;;4166578;28;20045;-53
2024/02/21 01:34:38;;;;;;;45.83;42.77;;;;;;;;;;4166965;28;20037;-55
2024/02/21 01:36:41;;;;;;;43.60;40.63;;;;;;;;;;4166713;28;20432;-55
2024/02/21 01:38:43;;;;;;;46.20;43.40;;;;;;;;;;4166520;28;20041;-55
2024/02/21 01:40:45;;;;;;;41.08;38.75;;;;;;;;;;4166565;28;20050;-55
2024/02/21 01:42:47;;;;;;;44.88;42.13;;;;;;;;;;4166477;28;20409;-55
2024/02/21 01:44:49;;;;;;;;;;;;;;;;;;4166916;28;20044;-55
2024/02/21 01:46:51;;;;;;;41.92;39.63;;;;;;;;;;4166419;28;19956;-55
2024/02/21 01:48:53;;;;;;;;;;;;;;;;;;4166838;28;20049;-55
2024/02/21 01:50:56;;;;;;;40.40;38.40;;;;;;;;;;4166898;28;19929;-55
2024/02/21 01:52:57;;;;;;;;;;;;;;;;;;4167097;28;20095;-55
2024/02/21 01:54:59;;;;;;;40.10;38.10;;;;;;;;;;4166512;28;19931;-55
2024/02/21 01:57:01;;;;;;;39.95;37.95;;;;;;;;;;4166546;28;20037;-55
2024/02/21 01:59:03;;;;;;;40.43;38.63;;;;;;;;;;4165429;28;20405;-55
2024/02/21 02:01:06;;;;;;;39.17;37.63;;;;;;;;;;4188896;23;20321;-82
2024/02/21 02:03:10;;;;;;;39.17;37.20;;;;;;;;;;4197692;28;20060;-83
2024/02/21 02:05:12;;;;;;;42.88;40.47;;;;;;;;;;4215904;28;20043;-83
2024/02/21 02:07:13;;;;;;;45.58;43.00;;;;;;;;;;4216093;28;20036;-83
2024/02/21 02:09:15;;;;;;;40.83;38.72;;;;;;;;;;4215968;28;20034;-83
2024/02/21 02:11:17;;;;;;;40.10;38.40;;;;;;;;;;4217656;28;20036;-83
2024/02/21 02:13:19;;;;;;;45.13;42.53;;;;;;;;;;4197809;28;20048;-83
2024/02/21 02:15:20;;;;;;;49.07;46.03;;;;;;;;;;4194984;28;20045;-83
2024/02/21 02:17:22;;;;;;;44.53;41.90;;;;;;;;;;4199298;28;20442;-83
2024/02/21 02:19:24;;;;;;;44.60;42.27;;;;;;;;;;4199387;28;20040;-83
2024/02/21 02:21:30;;;;;;;44.67;42.17;;;;;;;;;;4198988;28;20283;-83
2024/02/21 02:23:33;;;;;;;44.97;42.47;;;;;;;;;;4198927;28;20032;-83
2024/02/21 02:25:39;;;;;;;40.13;38.10;;;;;;;;;;4181396;28;20445;-83
2024/02/21 02:27:44;;;;;;;44.55;42.05;;;;;;;;;;4198829;28;20036;-83
2024/02/21 02:29:46;;;;;;;44.00;41.60;;;;;;;;;;4198809;28;20043;-83
2024/02/21 02:31:49;;;;;;;47.17;44.75;;;;;;;;;;4199091;28;20049;-83
2024/02/21 02:33:50;;;;;;;43.58;41.28;;;;;;;;;;4198867;28;20524;-83
2024/02/21 02:35:52;;;;;;;43.35;40.85;;;;;;;;;;4198922;28;20525;-83
2024/02/21 02:37:54;;;;;;;45.10;42.43;;;;;;;;;;4198963;28;20044;-83
2024/02/21 02:39:56;;;;;;;45.25;42.85;;;;;;;;;;4198855;28;20075;-83
2024/02/21 02:41:58;;;;;;;45.38;42.83;;;;;;;;;;4181164;28;20124;-83
2024/02/21 02:43:59;;;;;;;44.63;42.17;;;;;;;;;;4198918;28;20119;-83
2024/02/21 02:46:01;;;;;;;43.40;41.07;;;;;;;;;;4181156;28;20116;-83
2024/02/21 02:48:03;;;;;;;45.55;42.95;;;;;;;;;;4198582;28;20845;-83
2024/02/21 02:50:06;;;;;;;46.47;43.97;;;;;;;;;;4164408;28;20115;-83
2024/02/21 02:52:08;;;;;;;46.38;43.65;;;;;;;;;;4198804;28;20037;-83
2024/02/21 02:54:10;;;;;;;46.43;43.53;;;;;;;;;;4181211;28;20049;-83
2024/02/21 02:56:15;;;;;;;46.30;43.53;;;;;;;;;;4198629;28;20067;-83
2024/02/21 02:58:17;;;;;;;45.67;43.30;;;;;;;;;;4213677;28;20044;-83
2024/02/21 03:00:19;;;;;;;45.20;42.43;;;;;;;;;;4179474;28;20053;-83
2024/02/21 03:02:21;;;;;;;44.85;42.25;;;;;;;;;;4198747;28;20691;-83
2024/02/21 03:04:23;;;;;;;45.00;42.30;;;;;;;;;;4180826;28;20059;-83
2024/02/21 03:06:25;;;;;;;42.55;40.03;;;;;;;;;;4198401;28;20403;-83
2024/02/21 03:08:26;;;;;;;44.33;41.70;;;;;;;;;;4188231;28;20056;-83
2024/02/21 03:10:28;;;;;;;45.90;42.97;;;;;;;;;;4164712;28;20037;-83
2024/02/21 03:12:30;;;;;;;46.58;43.85;;;;;;;;;;4180825;28;20444;-83
2024/02/21 03:14:32;;;;;;;45.30;43.00;;;;;;;;;;4197848;28;20036;-82
2024/02/21 03:16:34;;;;;;;46.22;43.45;;;;;;;;;;4197244;28;20040;-81
2024/02/21 03:18:36;;;;;;;44.28;41.97;;;;;;;;;;4197194;28;20123;-82
2024/02/21 03:20:37;;;;;;;46.27;43.67;;;;;;;;;;4198123;28;20098;-81
2024/02/21 03:22:39;;;;;;;47.27;44.43;;;;;;;;;;4180306;28;20041;-81
2024/02/21 03:24:42;;;;;;;44.08;41.42;;;;;;;;;;4180700;28;20059;-82
2024/02/21 03:26:44;;;;;;;47.50;44.58;;;;;;;;;;4180152;28;20045;-82
2024/02/21 03:28:46;;;;;;;45.28;43.10;;;;;;;;;;4198029;28;20044;-82
2024/02/21 03:30:48;;;;;;;46.05;43.70;;;;;;;;;;4197948;28;20056;-82
2024/02/21 03:32:51;;;;;;;44.45;42.15;;;;;;;;;;4197918;28;20045;-82
2024/02/21 03:34:52;;;;;;;46.03;43.78;;;;;;;;;;4196467;28;20044;-82
2024/02/21 03:36:54;;;;;;;44.90;42.90;;;;;;;;;;4196168;28;20040;-83
2024/02/21 03:38:56;;;;;;;44.07;41.70;;;;;;;;;;4180165;28;20049;-83
2024/02/21 03:40:58;;;;;;;43.13;40.87;;;;;;;;;;4198027;28;20295;-83
2024/02/21 03:42:59;;;;;;;39.47;38.07;;;;;;;;;;4163449;28;20288;-83
2024/02/21 03:45:01;;;;;;;41.33;39.83;;;;;;;;;;4178894;28;20561;-83
2024/02/21 03:47:03;;;;;;;40.33;38.67;;;;;;;;;;4197745;28;20085;-83
2024/02/21 03:49:04;;;;;;;39.30;37.67;;;;;;;;;;4191136;28;20040;-83
2024/02/21 03:51:06;;;;;;;40.50;38.80;;;;;;;;;;4181372;28;20040;-83
2024/02/21 03:53:09;;;;;;;37.25;35.92;;;;;;;;;;4178977;28;20128;-83
2024/02/21 03:55:10;;;;;;;;;;;;;;;;;;4180249;28;20045;-83
2024/02/21 03:57:12;;;;;;;37.70;36.10;;;;;;;;;;4178976;28;20320;-83
2024/02/21 03:59:14;;;;;;;43.35;41.40;;;;;;;;;;4197816;28;20558;-83
2024/02/21 04:01:16;;;;;;;41.10;39.30;;;;;;;;;;4185291;28;20110;-83
2024/02/21 04:03:18;;;;;;;38.92;37.33;;;;;;;;;;4180443;28;20125;-83
2024/02/21 04:05:19;;;;;;;44.53;41.63;;;;;;;;;;4208346;28;20036;-83
2024/02/21 04:07:21;;;;;;;49.67;46.38;;;;;;;;;;4200004;28;20283;-83
2024/02/21 04:09:23;;;;;;;51.47;47.63;;;;;;;;;;4179258;28;20059;-83
2024/02/21 04:11:25;;;;;;;47.37;44.67;;;;;;;;;;4179581;28;20060;-83
2024/02/21 04:13:27;;;;;;;49.17;46.53;;;;;;;;;;4179511;28;20287;-83
2024/02/21 04:15:28;;;;;;;49.03;46.00;;;;;;;;;;4179150;28;20041;-83
2024/02/21 04:17:30;;;;;;;50.70;47.70;;;;;;;;;;4179453;28;20492;-83
2024/02/21 04:19:33;;;;;;;48.88;46.10;;;;;;;;;;4180615;28;20037;-83
2024/02/21 04:21:35;;;;;;;45.80;43.30;;;;;;;;;;4163468;28;20512;-83
2024/02/21 04:23:37;;;;;;;43.92;41.47;;;;;;;;;;4180755;28;20056;-83
2024/02/21 04:25:39;;;;;;;45.50;43.55;;;;;;;;;;4180493;28;20049;-82
2024/02/21 04:27:41;;;;;;;45.95;43.92;;;;;;;;;;4162923;28;20576;-82
2024/02/21 04:29:43;;;;;;;41.58;39.60;;;;;;;;;;4163104;28;20037;-82
2024/02/21 04:31:45;;;;;;;43.95;41.88;;;;;;;;;;4163161;28;20029;-82
2024/02/21 04:33:47;;;;;;;42.85;40.65;;;;;;;;;;4180891;28;20048;-82
2024/02/21 04:35:48;;;;;;;41.88;40.22;;;;;;;;;;4163227;28;20619;-82
2024/02/21 04:37:50;;;;;;;42.92;41.03;;;;;;;;;;4180804;28;20088;-82
2024/02/21 04:39:52;;;;;;;42.72;40.33;;;;;;;;;;4180752;28;20036;-82
2024/02/21 04:41:53;;;;;;;45.20;42.47;;;;;;;;;;4180820;28;20044;-82
2024/02/21 04:43:55;;;;;;;45.50;43.08;;;;;;;;;;4162658;28;20460;-82
2024/02/21 04:45:57;;;;;;;44.85;42.92;;;;;;;;;;4180743;28;20485;-82
2024/02/21 04:47:59;;;;;;;46.95;44.33;;;;;;;;;;4162724;28;20783;-83
2024/02/21 04:50:00;;;;;;;43.65;41.65;;;;;;;;;;4171477;28;20044;-83
2024/02/21 04:52:02;;;;;;;43.22;41.22;;;;;;;;;;4197031;28;20144;-83
2024/02/21 04:54:04;;;;;;;42.70;40.33;;;;;;;;;;4179256;28;20084;-83
2024/02/21 04:56:06;;;;;;;45.30;43.10;;;;;;;;;;4196990;28;20032;-83
2024/02/21 04:58:08;;;;;;;41.78;39.97;;;;;;;;;;4179053;28;20048;-83
2024/02/21 05:00:10;;;;;;;43.80;41.70;;;;;;;;;;4179014;28;20076;-83
2024/02/21 05:02:12;;;;;;;;;;;;;;;;;;4180958;28;20824;-83
2024/02/21 05:04:16;;;;;;;48.22;45.85;;;;;;;;;;4190466;28;19925;-83
2024/02/21 05:06:17;;;;;;;46.70;44.50;;;;;;;;;;4196981;28;20045;-83
2024/02/21 05:08:19;;;;;;;47.03;44.40;;;;;;;;;;4179173;28;20120;-83
2024/02/21 05:10:21;;;;;;;45.95;43.50;;;;;;;;;;4196567;28;20071;-83
2024/02/21 05:12:22;;;;;;;43.63;41.95;;;;;;;;;;4197042;28;20040;-83
2024/02/21 05:14:24;;;;;;;44.03;41.80;;;;;;;;;;4190798;28;20048;-83
2024/02/21 05:16:26;;;;;;;42.28;40.55;;;;;;;;;;4196925;28;20290;-83
2024/02/21 05:18:28;;;;;;;45.13;42.93;;;;;;;;;;4195205;28;20090;-83
2024/02/21 05:20:30;;;;;;;44.47;42.10;;;;;;;;;;4197035;28;20048;-83
2024/02/21 05:22:32;;;;;;;44.80;42.40;;;;;;;;;;4179047;28;20056;-83
2024/02/21 05:24:33;;;;;;;52.17;48.67;;;;;;;;;;4194825;28;20468;-83
2024/02/21 05:26:35;;;;;;;47.85;45.28;;;;;;;;;;4196291;28;20037;-83
2024/02/21 05:28:37;;;;;;;47.03;44.33;;;;;;;;;;4196879;28;20043;-83
2024/02/21 05:30:40;;;;;;;47.05;43.97;;;;;;;;;;4196672;28;20627;-83
2024/02/21 05:32:42;;;;;;;50.80;47.70;;;;;;;;;;4175948;28;20044;-83
2024/02/21 05:34:44;;;;;;;52.63;48.65;;;;;;;;;;4173447;28;20123;-83
2024/02/21 05:36:46;;;;;;;49.50;46.13;;;;;;;;;;4178592;28;20045;-83
2024/02/21 05:38:47;;;;;;;51.40;47.83;;;;;;;;;;4181670;28;20111;-83
2024/02/21 05:40:49;;;;;;;49.23;45.83;;;;;;;;;;4182103;28;20045;-83
2024/02/21 05:42:51;;;;;;;53.17;48.95;;;;;;;;;;4198634;28;20440;-83
2024/02/21 05:44:53;;;;;;;53.92;50.55;;;;;;;;;;4199646;28;20549;-83
2024/02/21 05:46:55;;;;;;;51.10;47.57;;;;;;;;;;4195573;28;20594;-83
2024/02/21 05:48:57;;;;;;;47.45;43.78;;;;;;;;;;4199560;28;20090;-83
2024/02/21 05:51:01;;;;;;;51.67;48.42;;;;;;;;;;4199423;28;20114;-83
2024/02/21 05:53:03;;;;;;;51.38;48.17;;;;;;;;;;4181890;28;20041;-83
2024/02/21 05:55:06;;;;;;;48.83;45.88;;;;;;;;;;4165100;28;20397;-83
2024/02/21 05:57:08;;;;;;;48.58;45.92;;;;;;;;;;4172973;28;20041;-82
2024/02/21 05:59:10;;;;;;;51.33;48.22;;;;;;;;;;4182756;28;20463;-82
2024/02/21 06:01:12;;;;;;;51.83;47.97;;;;;;;;;;4182674;28;20052;-82
2024/02/21 06:03:13;;;;;;;48.83;45.87;;;;;;;;;;4182668;28;20415;-82
2024/02/21 06:05:15;;;;;;;51.22;47.92;;;;;;;;;;4182644;28;20295;-82
2024/02/21 06:07:17;;;;;;;47.53;45.03;;;;;;;;;;4164803;28;20037;-82
2024/02/21 06:09:19;;;;;;;45.90;43.50;;;;;;;;;;4182544;28;20041;-82
2024/02/21 06:11:21;;;;;;;49.38;45.95;;;;;;;;;;4182785;28;20468;-82
2024/02/21 06:13:26;;;;;;;46.42;43.10;;;;;;;;;;4165030;28;20064;-82
2024/02/21 06:15:27;;;;;;;56.10;51.85;;;;;;;;;;4193237;28;20497;-82
2024/02/21 06:17:29;;;;;;;49.33;46.17;;;;;;;;;;4180976;28;20041;-82
2024/02/21 06:19:31;;;;;;;52.85;49.20;;;;;;;;;;4182599;28;20099;-80
2024/02/21 06:21:33;;;;;;;51.28;47.63;;;;;;;;;;4181096;28;20053;-78
2024/02/21 06:23:36;;;;;;;50.30;46.70;;;;;;;;;;4183080;28;20374;-78
2024/02/21 06:25:38;;;;;;;44.13;41.20;;;;;;;;;;4172274;28;20562;-78
2024/02/21 06:27:40;;;;;;;50.38;47.53;;;;;;;;;;4181059;28;20461;-78
2024/02/21 06:29:42;;;;;;;42.85;40.35;;;;;;;;;;4199047;28;20106;-78
2024/02/21 06:31:43;;;;;;;75.63;66.07;;;;;;;;;;4199048;28;20040;-78
2024/02/21 06:33:45;;;;;;;56.43;52.30;;;;;;;;;;4198976;28;20538;-78
2024/02/21 06:35:47;;;;;;;53.13;48.57;;;;;;;;;;4198724;28;20293;-78
2024/02/21 06:37:51;;;;;;;53.90;50.22;;;;;;;;;;4180924;28;20136;-78
2024/02/21 06:39:53;;;;;;;48.40;45.53;;;;;;;;;;4164286;28;20045;-78
2024/02/21 06:41:54;;;;;;;46.67;43.65;;;;;;;;;;4164154;28;20058;-78
2024/02/21 06:43:59;;;;;;;48.47;45.80;;;;;;;;;;4198711;28;20041;-78
2024/02/21 06:46:01;;;;;;;48.40;45.45;;;;;;;;;;4164344;28;20065;-78
2024/02/21 06:48:03;;;;;;;45.78;43.22;;;;;;;;;;4180886;28;20041;-78
2024/02/21 06:50:05;;;;;;;45.55;43.45;;;;;;;;;;4192522;28;20063;-79
2024/02/21 06:52:07;;;;;;;49.47;47.08;;;;;;;;;;4180556;28;20041;-78
2024/02/21 06:54:09;;;;;;;51.60;48.80;;;;;;;;;;4194711;28;20079;-78
2024/02/21 06:56:11;;;;;;;45.60;43.17;;;;;;;;;;4202243;28;20444;-78
2024/02/21 06:58:13;;;;;;;42.22;40.53;;;;;;;;;;4182233;28;20045;-78
2024/02/21 07:00:15;;;;;;;43.40;41.47;;;;;;;;;;4163730;28;20049;-78
2024/02/21 07:02:17;;;;;;;44.00;42.00;;;;;;;;;;4181650;28;20041;-78
2024/02/21 07:04:19;;;;;;;42.40;40.50;;;;;;;;;;4164368;28;20044;-77
2024/02/21 07:06:20;;;;;;;39.15;37.75;;;;;;;;;;4182052;28;20124;-78
2024/02/21 07:08:22;;;;;;;42.13;40.35;;;;;;;;;;4164560;28;20037;-78
2024/02/21 07:10:24;;;;;;;40.58;39.10;;;;;;;;;;4164151;28;20072;-78
2024/02/21 07:12:26;;;;;;;39.90;38.40;;;;;;;;;;4181768;28;20045;-78
2024/02/21 07:14:32;;;;;;;38.58;36.90;;;;;;;;;;4181625;28;20049;-78
2024/02/21 07:16:33;;;;;;;43.38;41.20;;;;;;;;;;4180922;28;20044;-78
2024/02/21 07:18:35;;;;;;;45.95;43.50;;;;;;;;;;4181763;28;20079;-78
2024/02/21 07:20:37;;;;;;;40.47;38.63;;;;;;;;;;4181655;28;20045;-78
2024/02/21 07:22:39;;;;;;;43.90;42.07;;;;;;;;;;4164068;28;20089;-78
2024/02/21 07:24:40;;;;;;;39.00;37.47;;;;;;;;;;4181695;28;20043;-78
2024/02/21 07:26:45;;;;;;;40.58;38.75;;;;;;;;;;4181805;28;20045;-78
2024/02/21 07:28:47;;;;;;;47.38;44.88;;;;;;;;;;4164058;28;20144;-78
2024/02/21 07:30:48;;;;;;;46.92;44.28;;;;;;;;;;4181524;28;20444;-77
2024/02/21 07:32:51;;;;;;;66.65;60.47;;;;;;;;;;4181470;28;20056;-78
2024/02/21 07:34:52;;;;;;;59.65;54.67;;;;;;;;;;4181598;28;20048;-78
2024/02/21 07:36:54;;;;;;;46.10;43.30;;;;;;;;;;4163525;28;20473;-78
2024/02/21 07:38:56;;;;;;;45.47;42.60;;;;;;;;;;4191394;28;20051;-78
2024/02/21 07:40:58;;;;;;;40.22;37.90;;;;;;;;;;4198118;28;20286;-78
2024/02/21 07:42:59;;;;;;;40.07;38.17;;;;;;;;;;4197967;28;20040;-78
2024/02/21 07:45:01;;;;;;;38.83;36.87;;;;;;;;;;4179789;28;20037;-78
2024/02/21 07:47:06;;;;;;;36.47;34.90;;;;;;;;;;4196561;28;20048;-78
2024/02/21 07:49:08;;;;;;;37.45;36.00;;;;;;;;;;4179970;28;20566;-78
2024/02/21 07:51:10;;;;;;;41.08;38.92;;;;;;;;;;4179907;28;20075;-78
2024/02/21 07:53:12;;;;;;;41.37;38.47;;;;;;;;;;4163291;28;20041;-78
2024/02/21 07:55:13;;;;;;;43.83;40.47;;;;;;;;;;4181350;28;20041;-78
2024/02/21 07:57:15;;;;;;;41.80;39.17;;;;;;;;;;4180286;28;20112;-79
2024/02/21 07:59:17;;;;;;;35.97;34.33;;;;;;;;;;4163778;28;20081;-79
2024/02/21 08:01:20;;;;;;;35.47;34.05;;;;;;;;;;4162397;28;20065;-79
2024/02/21 08:03:23;;;;;;;36.22;34.38;;;;;;;;;;4163489;28;20116;-79
2024/02/21 08:05:24;;;;;;;37.75;36.22;;;;;;;;;;4163282;28;20807;-79
2024/02/21 08:07:28;;;;;;;40.63;38.47;;;;;;;;;;4181032;28;20090;-79
2024/02/21 08:09:31;;;;;;;36.63;34.85;;;;;;;;;;4181225;28;20048;-79
2024/02/21 08:11:32;;;;;;;39.73;37.73;;;;;;;;;;4180916;28;20055;-79
2024/02/21 08:13:34;;;;;;;37.83;35.97;;;;;;;;;;4181014;28;20048;-79
2024/02/21 08:15:38;;;;;;;37.27;35.43;;;;;;;;;;4163462;28;20068;-80
2024/02/21 08:17:40;;;;;;;35.58;34.03;;;;;;;;;;4181161;28;21078;-80
2024/02/21 08:19:42;;;;;;;35.33;33.53;;;;;;;;;;4181269;28;20129;-81
2024/02/21 08:21:46;;;;;;;39.37;37.27;;;;;;;;;;4163074;28;20136;-81
2024/02/21 08:23:51;;;;;;;37.80;35.83;;;;;;;;;;4162989;28;20300;-81
2024/02/21 08:25:53;;;;;;;42.55;40.20;;;;;;;;;;4181007;28;20033;-81
2024/02/21 08:27:57;;;;;;;39.57;37.57;;;;;;;;;;4163200;28;20136;-81
2024/02/21 08:29:58;;;;;;;38.17;36.08;;;;;;;;;;4163292;28;20508;-81
2024/02/21 08:32:00;;;;;;;38.25;36.25;;;;;;;;;;4162870;28;20413;-81
2024/02/21 08:34:03;;;;;;;38.85;37.15;;;;;;;;;;4163004;28;20598;-81
2024/02/21 08:36:05;;;;;;;41.60;38.97;;;;;;;;;;4179439;28;20041;-81
2024/02/21 08:38:07;;;;;;;42.40;38.88;;;;;;;;;;4179525;28;20047;-81
2024/02/21 08:40:09;;;;;;;44.67;41.20;;;;;;;;;;4179370;28;20091;-81
2024/02/21 08:42:11;;;;;;;46.60;43.22;;;;;;;;;;4197517;28;20472;-81
2024/02/21 08:44:14;;;;;;;45.05;41.35;;;;;;;;;;4197202;28;20044;-82
2024/02/21 08:46:16;;;;;;;42.03;39.07;;;;;;;;;;4191064;28;20177;-81
2024/02/21 08:48:19;;;;;;;42.93;39.83;;;;;;;;;;4192849;28;20283;-81
2024/02/21 08:50:21;;;;;;;45.90;42.15;;;;;;;;;;4162931;28;20284;-81
2024/02/21 08:52:29;;;;;;;46.28;42.45;;;;;;;;;;4162982;28;20502;-81
2024/02/21 08:54:32;;;;;;;45.92;42.50;;;;;;;;;;4179542;28;20056;-81
2024/02/21 08:56:35;;;;;;;43.60;39.92;;;;;;;;;;4180555;28;20497;-81
2024/02/21 08:58:37;;;;;;;43.05;39.65;;;;;;;;;;4180830;28;20041;-81
2024/02/21 09:00:38;;;;;;;45.03;41.40;;;;;;;;;;4180264;28;20084;-81
2024/02/21 09:02:41;;;;;;;39.22;36.70;;;;;;;;;;4162819;28;20041;-81
2024/02/21 09:04:43;;;;;;;38.75;36.65;;;;;;;;;;4180287;28;20091;-81
2024/02/21 09:06:46;;;;;;;38.72;36.58;;;;;;;;;;4180424;28;20584;-81
2024/02/21 09:08:48;;;;;;;;;;;;;;;;;;4180068;28;20061;-79
2024/02/21 09:10:49;;;;;;;32.92;31.27;;;;;;;;;;4146182;28;19922;-79
2024/02/21 09:12:51;;;;;;;34.20;32.42;;;;;;;;;;4164221;28;20037;-79
2024/02/21 09:14:53;;;;;;;32.77;30.93;;;;;;;;;;4183523;28;20045;-79
2024/02/21 09:16:55;;;;;;;33.67;32.25;;;;;;;;;;4183543;28;20041;-79
2024/02/21 09:18:57;;;;;;;;;;;;;;;;;;4184284;28;20036;-79
2024/02/21 09:21:00;;;;;;;30.05;28.70;;;;;;;;;;4181876;28;20011;-79
2024/02/21 09:23:01;;;;;;;28.75;27.65;;;;;;;;;;4165553;28;20050;-79
2024/02/21 09:25:04;;;;;;;32.60;31.13;;;;;;;;;;4182063;28;20049;-79
2024/02/21 09:27:06;;;;;;;;;;;;;;;;;;4183837;28;20043;-80
2024/02/21 09:29:07;;;;;;;29.30;28.13;;;;;;;;;;4183769;28;19924;-79
2024/02/21 09:31:09;;;;;;;26.80;25.90;;;;;;;;;;4182125;28;20080;-79
2024/02/21 09:33:11;;;;;;;26.90;26.13;;;;;;;;;;4181780;28;20041;-79
2024/02/21 09:35:23;;;;;;;26.98;26.05;;;;;;;;;;4167336;28;20077;-79
2024/02/21 09:37:25;;;;;;;28.60;27.70;;;;;;;;;;4199798;28;20094;-79
2024/02/21 09:39:26;;;;;;;28.87;27.67;;;;;;;;;;4199887;28;20048;-79
2024/02/21 09:41:28;;;;;;;27.53;26.67;;;;;;;;;;4202944;28;20410;-79
2024/02/21 09:43:30;;;;;;;25.03;24.03;;;;;;;;;;4198618;28;20126;-79
2024/02/21 09:45:33;;;;;;;26.42;25.45;;;;;;;;;;4175431;28;20489;-79
2024/02/21 09:47:43;;;;;;;25.70;24.65;;;;;;;;;;4183287;28;20036;-79
2024/02/21 09:49:45;;;;;;;22.23;21.63;;;;;;;;;;4165404;28;20037;-79
2024/02/21 09:51:49;;;;;;;24.35;23.10;;;;;;;;;;4183126;28;20069;-79
2024/02/21 09:53:52;;;;;;;20.42;19.60;;;;;;;;;;4183202;28;20094;-80
2024/02/21 09:56:07;;;;;;;21.00;20.45;;;;;;;;;;4183203;28;20044;-79
2024/02/21 09:58:13;;;;;;;19.67;18.85;;;;;;;;;;4165304;28;20080;-79
2024/02/21 10:00:21;;;;;;;19.08;18.35;;;;;;;;;;4165300;28;20037;-79
2024/02/21 10:02:23;;;;;;;16.27;15.65;;;;;;;;;;4165425;28;20041;-79
2024/02/21 10:04:25;;;;;;;14.73;14.10;;;;;;;;;;4183197;28;20040;-79
2024/02/21 10:06:27;;;;;;;13.23;12.93;;;;;;;;;;4165304;28;20049;-79
2024/02/21 10:08:29;;;;;;;11.23;10.57;;;;;;;;;;4182902;28;20110;-79
2024/02/21 10:10:41;;;;;;;9.73;9.00;;;;;;;;;;4148752;28;20053;-79
2024/02/21 10:12:50;;;;;;;9.27;8.95;;;;;;;;;;4182587;28;20522;-79
2024/02/21 10:15:05;;;;;;;10.13;9.48;;;;;;;;;;4182651;28;20041;-79
2024/02/21 10:17:09;;;;;;;9.45;9.10;;;;;;;;;;4165316;28;20049;-80
2024/02/21 10:19:20;;;;;;;6.85;6.53;;;;;;;;;;4148862;28;20053;-81
2024/02/21 10:21:22;;;;;;;8.18;7.78;;;;;;;;;;4182579;28;20049;-81
2024/02/21 10:23:24;;;;;;;7.97;7.77;;;;;;;;;;4182229;28;20447;-81
2024/02/21 10:25:25;;;;;;;8.00;7.57;;;;;;;;;;4164669;28;20567;-81
2024/02/21 10:27:27;;;;;;;8.43;8.23;;;;;;;;;;4172611;28;20401;-81
2024/02/21 10:29:30;;;;;;;6.28;5.78;;;;;;;;;;4199314;28;20036;-82
2024/02/21 10:31:32;;;;;;;7.05;6.63;;;;;;;;;;4198100;28;20040;-81
2024/02/21 10:33:34;;;;;;;3.42;3.33;;;;;;;;;;4199248;28;20040;-81
2024/02/21 10:35:36;;;;;;;4.07;3.97;;;;;;;;;;4199219;28;20064;-81
2024/02/21 10:37:38;;;;;;;3.30;3.10;;;;;;;;;;4195244;28;20523;-81
2024/02/21 10:39:41;;;;;;;2.83;2.83;;;;;;;;;;4148267;28;20042;-81
2024/02/21 10:41:43;;;;;;;3.08;2.97;;;;;;;;;;4186651;28;20094;-81
2024/02/21 10:43:47;;;;;;;3.05;2.75;;;;;;;;;;4171272;28;20042;-81
2024/02/21 10:45:49;;;;;;;2.70;2.53;;;;;;;;;;4168757;28;20045;-81
2024/02/21 10:47:55;;;;;;;2.63;2.60;;;;;;;;;;4171731;28;20417;-81
2024/02/21 10:50:02;;;;;;;4.18;2.30;;;;;;;;;;4188278;28;20149;-81
2024/02/21 10:52:23;;;;;;;2.83;2.83;;;;;;;;;;4172448;28;20040;-82
2024/02/21 10:54:43;;;;;;;2.65;2.60;;;;;;;;;;4190293;28;20044;-82
2024/02/21 10:56:44;;;;;;;2.33;2.30;;;;;;;;;;4187820;28;20051;-82
2024/02/21 10:58:46;;;;;;;2.27;2.27;;;;;;;;;;4188585;28;20488;-82
2024/02/21 11:00:49;;;;;;;2.30;2.30;;;;;;;;;;4164126;28;20285;-82
2024/02/21 11:02:51;;;;;;;2.70;2.40;;;;;;;;;;4177564;28;20125;-82
2024/02/21 11:04:54;;;;;;;2.42;2.25;;;;;;;;;;4180222;28;20051;-82
2024/02/21 11:06:56;;;;;;;2.45;2.45;;;;;;;;;;4184848;28;20045;-82
2024/02/21 11:09:05;;;;;;;2.08;2.08;;;;;;;;;;4180799;28;20037;-82
2024/02/21 11:11:07;;;;;;;1.92;1.92;;;;;;;;;;4180596;28;20060;-82
2024/02/21 11:13:14;;;;;;;1.83;1.83;;;;;;;;;;4165251;28;20037;-82
2024/02/21 11:15:15;;;;;;;1.40;1.40;;;;;;;;;;4164944;28;20037;-82
2024/02/21 11:17:18;;;;;;;1.63;1.63;;;;;;;;;;4165370;28;20091;-82
2024/02/21 11:19:21;;;;;;;1.50;1.50;;;;;;;;;;4165366;28;20495;-82
2024/02/21 11:21:33;;;;;;;1.40;1.30;;;;;;;;;;4163879;28;20054;-82
2024/02/21 11:23:34;;;;;;;1.20;1.10;;;;;;;;;;4171934;28;20069;-82
2024/02/21 11:25:36;;;;;;;1.43;1.43;;;;;;;;;;4178354;28;20041;-82
2024/02/21 11:27:38;;;;;;;1.30;1.30;;;;;;;;;;4195317;28;20375;-82
2024/02/21 11:29:43;;;;;;;1.30;1.30;;;;;;;;;;4176019;28;20041;-80
2024/02/21 11:31:48;;;;;;;1.27;1.27;;;;;;;;;;4181641;28;20041;-80
2024/02/21 11:33:51;;;;;;;1.30;1.30;;;;;;;;;;4163708;28;20045;-80
2024/02/21 11:35:53;;;;;;;1.40;1.30;;;;;;;;;;4179445;28;20053;-80
2024/02/21 11:37:54;;;;;;;1.40;1.40;;;;;;;;;;4180730;28;20558;-79
2024/02/21 11:39:56;;;;;;;1.50;1.50;;;;;;;;;;4181223;28;20052;-80
2024/02/21 11:42:01;;;;;;;1.10;1.10;;;;;;;;;;4181389;28;20041;-80
2024/02/21 11:44:03;;;;;;;4.03;3.40;;;;;;;;;;4181075;28;20041;-80
2024/02/21 11:46:05;;;;;;;1.55;1.55;;;;;;;;;;4196721;28;20631;-80
2024/02/21 11:48:07;;;;;;;2.58;1.30;;;;;;;;;;4179675;28;20119;-80
2024/02/21 11:50:12;;;;;;;1.40;1.40;;;;;;;;;;4188778;28;20069;-81
2024/02/21 11:52:18;;;;;;;2.67;2.58;;;;;;;;;;4184635;28;20037;-80
2024/02/21 11:54:20;;;;;;;1.25;1.25;;;;;;;;;;4182596;28;20033;-81
2024/02/21 11:56:22;;;;;;;1.20;1.20;;;;;;;;;;4178204;28;20029;-80
2024/02/21 11:58:25;;;;;;;1.45;1.45;;;;;;;;;;4181921;28;20037;-81